createdAt,value
2024-03-09T00:00:44.988Z,99272.50
2024-03-09T00:01:47.416Z,99267.50
2024-03-09T00:02:51.697Z,99266.38
2024-03-09T00:03:53.555Z,99265.25
2024-03-09T00:04:56.892Z,99268.75
2024-03-09T00:05:58.937Z,99269.41
2024-03-09T00:07:00.818Z,99264.75
2024-03-09T00:08:04.397Z,99264.28
2024-03-09T00:09:06.418Z,99267.31
2024-03-09T00:10:08.891Z,99271.13
2024-03-09T00:11:11.126Z,99266.34
2024-03-09T00:12:16.050Z,99266.91
2024-03-09T00:13:19.395Z,99266.13
2024-03-09T00:14:21.322Z,99265.22
2024-03-09T00:15:25.403Z,99260.13
2024-03-09T00:16:27.469Z,99260.06
2024-03-09T00:17:30.125Z,99258.09
2024-03-09T00:18:41.146Z,99271.59
2024-03-09T00:19:47.021Z,99260.78
2024-03-09T00:20:48.916Z,99258.81
2024-03-09T00:21:50.968Z,99267.63
2024-03-09T00:22:54.489Z,99261.47
2024-03-09T00:23:56.430Z,99257.09
2024-03-09T00:24:58.272Z,99255.97
2024-03-09T00:26:00.143Z,99259.47
2024-03-09T00:27:02.034Z,99258.69
2024-03-09T00:28:04.109Z,99255.97
2024-03-09T00:29:06.056Z,99253.50
2024-03-09T00:30:19.149Z,99251.88
2024-03-09T00:31:21.039Z,99249.56
2024-03-09T00:32:26.787Z,99254.34
2024-03-09T00:33:29.567Z,99251.28
2024-03-09T00:34:31.462Z,99244.63
2024-03-09T00:35:33.364Z,99249.59
2024-03-09T00:36:35.232Z,99250.03
2024-03-09T00:37:37.872Z,99252.31
2024-03-09T00:38:39.900Z,99243.41
2024-03-09T00:39:43.859Z,99249.13
2024-03-09T00:40:45.774Z,99253.72
2024-03-09T00:41:48.871Z,99249.53
2024-03-09T00:42:50.892Z,99254.16
2024-03-09T00:43:56.075Z,99242.91
2024-03-09T00:44:57.982Z,99243.78
2024-03-09T00:45:59.827Z,99246.16
2024-03-09T00:47:01.815Z,99238.22
2024-03-09T00:48:06.555Z,99238.84
2024-03-09T00:49:11.209Z,99229.34
2024-03-09T00:50:13.165Z,99231.13
2024-03-09T00:51:15.024Z,99228.88
2024-03-09T00:52:16.906Z,99227.34
2024-03-09T00:53:18.748Z,99238.16
2024-03-09T00:54:20.601Z,99232.75
2024-03-09T00:55:24.324Z,99231.56
2024-03-09T00:56:26.409Z,99230.53
2024-03-09T00:57:28.293Z,99235.94
2024-03-09T00:58:30.239Z,99236.66
2024-03-09T00:59:32.864Z,99236.47
2024-03-09T01:00:34.715Z,99235.13
2024-03-09T01:01:36.683Z,99231.41
2024-03-09T01:02:39.858Z,99232.13
2024-03-09T01:03:42.213Z,99224.72
2024-03-09T01:04:44.394Z,99221.97
2024-03-09T01:05:46.380Z,99226.16
2024-03-09T01:06:48.237Z,99221.47
2024-03-09T01:07:53.459Z,99217.28
2024-03-09T01:08:55.647Z,99218.41
2024-03-09T01:09:57.725Z,99213.38
2024-03-09T01:10:59.717Z,99217.56
2024-03-09T01:12:01.704Z,99210.63
2024-03-09T01:13:06.480Z,99216.06
2024-03-09T01:14:08.946Z,99213.75
2024-03-09T01:15:15.220Z,99214.94
2024-03-09T01:16:17.391Z,99213.78
2024-03-09T01:17:22.423Z,99212.59
2024-03-09T01:18:24.417Z,99204.16
2024-03-09T01:19:26.528Z,99217.88
2024-03-09T01:20:28.397Z,99218.56
2024-03-09T01:21:30.274Z,99220.06
2024-03-09T01:22:32.159Z,99218.53
2024-03-09T01:23:34.094Z,99210.84
2024-03-09T01:24:35.976Z,99217.38
2024-03-09T01:25:38.389Z,99207.72
2024-03-09T01:26:42.175Z,99203.44
2024-03-09T01:27:45.612Z,99211.53
2024-03-09T01:28:47.541Z,99207.63
2024-03-09T01:29:49.416Z,99211.06
2024-03-09T01:30:51.301Z,99214.63
2024-03-09T01:31:53.901Z,99212.34
2024-03-09T01:32:55.797Z,99214.13
2024-03-09T01:33:59.627Z,99206.38
2024-03-09T01:35:02.917Z,99210.63
2024-03-09T01:38:01.350Z,99222.91
2024-03-09T01:39:03.626Z,99219.09
2024-03-09T01:40:07.956Z,99215.75
2024-03-09T01:41:10.058Z,99217.97
2024-03-09T01:42:12.031Z,99212.66
2024-03-09T01:43:17.938Z,99208.72
2024-03-09T01:44:19.824Z,99210.31
2024-03-09T01:45:21.840Z,99214.13
2024-03-09T01:46:24.886Z,99211.00
2024-03-09T01:47:27.929Z,99220.81
2024-03-09T01:48:30.308Z,99218.53
2024-03-09T01:49:32.416Z,99220.00
2024-03-09T01:50:34.417Z,99222.78
2024-03-09T01:51:37.455Z,99217.13
2024-03-09T01:52:40.200Z,99213.28
2024-03-09T01:53:44.307Z,99206.75
2024-03-09T01:54:48.686Z,99199.44
2024-03-09T01:55:51.722Z,99204.00
2024-03-09T01:56:54.149Z,99206.03
2024-03-09T01:57:56.109Z,99204.19
2024-03-09T01:58:58.118Z,99195.75
2024-03-09T02:00:00.876Z,99192.69
2024-03-09T02:01:05.790Z,99192.69
2024-03-09T02:02:10.353Z,99188.47
2024-03-09T02:03:14.569Z,99186.56
2024-03-09T02:04:16.895Z,99187.41
2024-03-09T02:05:22.246Z,99184.41
2024-03-09T02:06:28.374Z,99184.97
2024-03-09T02:07:30.300Z,99177.84
2024-03-09T02:08:33.073Z,99181.06
2024-03-09T02:09:35.679Z,99180.78
2024-03-09T02:10:40.186Z,99182.25
2024-03-09T02:11:45.901Z,99184.03
2024-03-09T02:12:47.807Z,99183.28
2024-03-09T02:13:50.124Z,99188.34
2024-03-09T02:14:52.226Z,99186.31
2024-03-09T02:15:55.882Z,99186.94
2024-03-09T02:16:59.770Z,99189.09
2024-03-09T02:18:01.783Z,99188.91
2024-03-09T02:19:04.409Z,99188.06
2024-03-09T02:20:12.567Z,99183.75
2024-03-09T02:21:14.633Z,99190.84
2024-03-09T02:22:18.807Z,99191.69
2024-03-09T02:23:24.824Z,99184.72
2024-03-09T02:24:32.151Z,99183.59
2024-03-09T02:25:37.310Z,99186.31
2024-03-09T02:26:39.880Z,99185.16
2024-03-09T02:27:44.508Z,99178.63
2024-03-09T02:28:56.711Z,99183.66
2024-03-09T02:29:58.722Z,99180.16
2024-03-09T02:31:01.374Z,99173.28
2024-03-09T02:32:05.147Z,99174.16
2024-03-09T02:33:09.634Z,99170.88
2024-03-09T02:34:11.739Z,99175.63
2024-03-09T02:35:13.972Z,99171.38
2024-03-09T02:36:15.876Z,99175.06
2024-03-09T02:37:21.054Z,99166.38
2024-03-09T02:38:25.986Z,99164.25
2024-03-09T02:39:29.828Z,99166.59
2024-03-09T02:40:31.919Z,99170.06
2024-03-09T02:41:34.068Z,99168.78
2024-03-09T02:42:40.397Z,99167.97
2024-03-09T02:43:42.567Z,99160.06
2024-03-09T02:44:44.514Z,99167.38
2024-03-09T02:45:46.345Z,99160.28
2024-03-09T02:46:48.251Z,99159.56
2024-03-09T02:47:50.175Z,99157.22
2024-03-09T02:48:54.893Z,99158.69
2024-03-09T02:49:56.906Z,99150.75
2024-03-09T02:50:59.199Z,99154.63
2024-03-09T02:52:02.835Z,99156.16
2024-03-09T02:53:05.025Z,99151.50
2024-03-09T02:54:07.949Z,99147.59
2024-03-09T02:55:09.839Z,99152.91
2024-03-09T02:56:21.972Z,99150.22
2024-03-09T02:57:24.011Z,99151.41
2024-03-09T02:58:25.858Z,99149.78
2024-03-09T02:59:33.246Z,99154.03
2024-03-09T03:00:35.528Z,99153.63
2024-03-09T03:01:38.485Z,99154.50
2024-03-09T03:03:00.852Z,99164.34
2024-03-09T03:04:04.086Z,99162.72
2024-03-09T03:05:06.420Z,99159.66
2024-03-09T03:06:08.385Z,99157.06
2024-03-09T03:07:10.580Z,99153.56
2024-03-09T03:08:13.335Z,99156.25
2024-03-09T03:09:17.857Z,99150.50
2024-03-09T03:10:19.984Z,99151.22
2024-03-09T03:11:23.008Z,99153.06
2024-03-09T03:12:25.172Z,99150.72
2024-03-09T03:13:27.017Z,99153.44
2024-03-09T03:14:28.945Z,99151.50
2024-03-09T03:15:30.776Z,99151.94
2024-03-09T03:16:36.958Z,99153.91
2024-03-09T03:17:39.586Z,99151.56
2024-03-09T03:18:41.477Z,99143.09
2024-03-09T03:19:43.379Z,99146.69
2024-03-09T03:20:45.282Z,99153.19
2024-03-09T03:21:47.228Z,99150.91
2024-03-09T03:22:52.128Z,99155.63
2024-03-09T03:23:54.814Z,99159.50
2024-03-09T03:24:57.183Z,99158.38
2024-03-09T03:25:59.096Z,99150.63
2024-03-09T03:27:01.389Z,99150.16
2024-03-09T03:28:06.141Z,99145.75
2024-03-09T03:29:09.265Z,99142.69
2024-03-09T03:30:11.880Z,99141.19
2024-03-09T03:31:14.915Z,99136.31
2024-03-09T03:32:17.637Z,99134.44
2024-03-09T03:33:20.356Z,99133.81
2024-03-09T03:34:25.984Z,99131.53
2024-03-09T03:35:32.614Z,99133.88
2024-03-09T03:36:39.390Z,99136.97
2024-03-09T03:37:42.951Z,99143.13
2024-03-09T03:38:47.461Z,99142.25
2024-03-09T03:39:49.395Z,99139.56
2024-03-09T03:40:53.125Z,99140.41
2024-03-09T03:41:55.063Z,99148.56
2024-03-09T03:42:59.229Z,99145.56
2024-03-09T03:44:01.190Z,99137.28
2024-03-09T03:45:03.221Z,99151.63
2024-03-09T03:46:07.316Z,99132.16
2024-03-09T03:47:09.622Z,99135.59
2024-03-09T03:48:17.103Z,99145.19
2024-03-09T03:49:19.057Z,99141.28
2024-03-09T03:50:20.945Z,99141.28
2024-03-09T03:51:22.787Z,99148.09
2024-03-09T03:52:24.863Z,99154.19
2024-03-09T03:53:27.016Z,99146.31
2024-03-09T03:54:28.870Z,99149.31
2024-03-09T03:55:30.716Z,99156.19
2024-03-09T03:56:32.669Z,99158.47
2024-03-09T03:57:34.529Z,99144.56
2024-03-09T03:58:38.835Z,99149.06
2024-03-09T03:59:40.843Z,99139.72
2024-03-09T04:00:43.180Z,99148.22
2024-03-09T04:01:45.109Z,99139.72
2024-03-09T04:02:47.000Z,99144.03
2024-03-09T04:03:48.861Z,99138.22
2024-03-09T04:04:50.820Z,99138.94
2024-03-09T04:05:54.552Z,99140.13
2024-03-09T04:06:56.442Z,99135.81
2024-03-09T04:07:58.523Z,99127.06
2024-03-09T04:09:00.451Z,99131.81
2024-03-09T04:10:05.120Z,99138.22
2024-03-09T04:11:07.695Z,99128.69
2024-03-09T04:12:09.792Z,99125.66
2024-03-09T04:13:13.103Z,99126.88
2024-03-09T04:14:15.086Z,99123.47
2024-03-09T04:15:17.222Z,99120.75
2024-03-09T04:16:19.076Z,99111.59
2024-03-09T04:17:20.972Z,99116.63
2024-03-09T04:18:23.848Z,99110.81
2024-03-09T04:19:28.779Z,99107.41
2024-03-09T04:20:35.363Z,99107.31
2024-03-09T04:21:39.527Z,99106.50
2024-03-09T04:22:43.009Z,99109.25
2024-03-09T04:23:45.257Z,99112.31
2024-03-09T04:24:48.665Z,99115.72
2024-03-09T04:25:52.039Z,99109.81
2024-03-09T04:26:54.753Z,99114.53
2024-03-09T04:27:56.894Z,99105.34
2024-03-09T04:29:03.433Z,99110.75
2024-03-09T04:30:08.480Z,99107.34
2024-03-09T04:31:10.926Z,99112.38
2024-03-09T04:32:15.386Z,99108.06
2024-03-09T04:33:18.745Z,99099.13
2024-03-09T04:34:25.115Z,99102.94
2024-03-09T04:35:27.009Z,99097.91
2024-03-09T04:36:30.818Z,99092.94
2024-03-09T04:37:36.425Z,99099.13
2024-03-09T04:38:38.670Z,99091.03
2024-03-09T04:39:45.177Z,99094.84
2024-03-09T04:40:51.162Z,99097.50
2024-03-09T04:41:55.675Z,99085.03
2024-03-09T04:42:57.751Z,99088.53
2024-03-09T04:44:02.479Z,99101.97
2024-03-09T04:45:06.982Z,99095.00
2024-03-09T04:46:09.217Z,99103.50
2024-03-09T04:47:11.184Z,99094.72
2024-03-09T04:48:15.658Z,99096.00
2024-03-09T04:49:19.104Z,99094.50
2024-03-09T04:50:21.414Z,99094.16
2024-03-09T04:51:24.472Z,99099.03
2024-03-09T04:52:26.437Z,99091.31
2024-03-09T04:53:28.294Z,99097.03
2024-03-09T04:54:31.492Z,99095.06
2024-03-09T04:55:33.451Z,99095.13
2024-03-09T04:56:36.825Z,99097.34
2024-03-09T04:57:40.228Z,99085.50
2024-03-09T04:58:43.444Z,99095.56
2024-03-09T04:59:45.647Z,99092.53
2024-03-09T05:00:47.948Z,99094.44
2024-03-09T05:01:50.012Z,99092.53
2024-03-09T05:02:52.386Z,99094.00
2024-03-09T05:03:54.246Z,99092.84
2024-03-09T05:04:56.152Z,99096.34
2024-03-09T05:05:58.014Z,99097.53
2024-03-09T05:07:00.022Z,99095.63
2024-03-09T05:08:04.231Z,99089.13
2024-03-09T05:09:08.043Z,99088.75
2024-03-09T05:10:11.526Z,99087.63
2024-03-09T05:11:14.592Z,99079.88
2024-03-09T05:12:16.628Z,99090.66
2024-03-09T05:13:18.695Z,99081.06
2024-03-09T05:14:20.605Z,99091.09
2024-03-09T05:15:27.241Z,99084.47
2024-03-09T05:16:31.672Z,99091.88
2024-03-09T05:17:34.519Z,99092.28
2024-03-09T05:18:36.446Z,99086.41
2024-03-09T05:19:38.423Z,99091.09
2024-03-09T05:20:40.961Z,99083.78
2024-03-09T05:21:45.496Z,99084.78
2024-03-09T05:22:51.670Z,99076.38
2024-03-09T05:23:53.584Z,99087.31
2024-03-09T05:24:55.482Z,99072.03
2024-03-09T05:25:57.407Z,99077.88
2024-03-09T05:26:59.261Z,99065.19
2024-03-09T05:28:01.238Z,99067.84
2024-03-09T05:29:03.297Z,99065.78
2024-03-09T05:30:05.639Z,99071.97
2024-03-09T05:31:26.613Z,99069.66
2024-03-09T05:32:29.104Z,99062.44
2024-03-09T05:33:31.130Z,99068.88
2024-03-09T05:34:35.548Z,99066.69
2024-03-09T05:35:37.500Z,99071.28
2024-03-09T05:36:40.418Z,99068.41
2024-03-09T05:37:43.136Z,99065.72
2024-03-09T05:38:46.011Z,99069.75
2024-03-09T05:39:50.391Z,99071.78
2024-03-09T05:40:52.323Z,99065.69
2024-03-09T05:41:54.265Z,99060.69
2024-03-09T05:42:56.786Z,99063.81
2024-03-09T05:43:58.913Z,99066.88
2024-03-09T05:45:01.191Z,99055.28
2024-03-09T05:46:06.142Z,99061.41
2024-03-09T05:47:08.273Z,99061.41
2024-03-09T05:48:10.846Z,99059.78
2024-03-09T05:49:12.764Z,99048.16
2024-03-09T05:50:17.051Z,99055.09
2024-03-09T05:51:19.700Z,99046.66
2024-03-09T05:52:21.640Z,99051.34
2024-03-09T05:53:27.736Z,99047.50
2024-03-09T05:54:32.409Z,99052.88
2024-03-09T05:55:34.747Z,99050.84
2024-03-09T05:56:36.708Z,99046.66
2024-03-09T05:57:41.968Z,99045.56
2024-03-09T05:58:44.090Z,99050.72
2024-03-09T05:59:46.109Z,99050.00
2024-03-09T06:00:48.363Z,99050.09
2024-03-09T06:01:50.315Z,99044.69
2024-03-09T06:02:53.162Z,99054.75
2024-03-09T06:03:55.073Z,99052.38
2024-03-09T06:04:57.712Z,99062.50
2024-03-09T06:05:59.592Z,99057.91
2024-03-09T06:07:01.537Z,99059.19
2024-03-09T06:08:04.468Z,99062.72
2024-03-09T06:09:06.656Z,99066.28
2024-03-09T06:10:11.064Z,99065.91
2024-03-09T06:11:13.127Z,99070.22
2024-03-09T06:12:16.727Z,99069.09
2024-03-09T06:13:19.134Z,99070.69
2024-03-09T06:14:25.143Z,99067.63
2024-03-09T06:15:27.263Z,99066.53
2024-03-09T06:16:32.167Z,99061.19
2024-03-09T06:17:34.701Z,99058.41
2024-03-09T06:18:36.706Z,99072.31
2024-03-09T06:19:38.660Z,99063.72
2024-03-09T06:20:43.789Z,99075.63
2024-03-09T06:21:45.793Z,99080.00
2024-03-09T06:22:48.310Z,99077.63
2024-03-09T06:23:51.575Z,99082.69
2024-03-09T06:24:53.480Z,99080.81
2024-03-09T06:25:57.612Z,99071.53
2024-03-09T06:27:01.494Z,99078.53
2024-03-09T06:28:07.448Z,99073.22
2024-03-09T06:29:12.287Z,99069.47
2024-03-09T06:30:17.224Z,99068.31
2024-03-09T06:31:19.109Z,99067.53
2024-03-09T06:32:26.872Z,99075.53
2024-03-09T06:33:29.411Z,99073.91
2024-03-09T06:34:31.366Z,99077.34
2024-03-09T06:35:34.008Z,99070.50
2024-03-09T06:43:08.713Z,99070.97
2024-03-09T06:44:15.699Z,99073.63
2024-03-09T06:45:19.500Z,99075.19
2024-03-09T06:46:21.999Z,99069.47
2024-03-09T06:47:24.629Z,99077.97
2024-03-09T06:48:26.938Z,99076.41
2024-03-09T06:49:28.958Z,99071.38
2024-03-09T06:50:33.283Z,99069.94
2024-03-09T06:51:35.330Z,99074.63
2024-03-09T06:52:39.061Z,99075.75
2024-03-09T06:53:44.934Z,99073.53
2024-03-09T06:54:47.615Z,99077.81
2024-03-09T06:55:51.210Z,99080.66
2024-03-09T06:56:54.475Z,99074.53
2024-03-09T06:57:58.156Z,99074.53
2024-03-09T06:59:00.204Z,99077.25
2024-03-09T07:00:13.526Z,99069.91
2024-03-09T07:01:22.167Z,99067.53
2024-03-09T07:02:25.021Z,99074.53
2024-03-09T07:03:27.023Z,99077.25
2024-03-09T07:04:29.583Z,99069.50
2024-03-09T07:05:32.715Z,99071.50
2024-03-09T07:06:35.962Z,99071.09
2024-03-09T07:07:42.500Z,99068.41
2024-03-09T07:08:44.624Z,99070.72
2024-03-09T07:09:51.186Z,99069.59
2024-03-09T07:10:54.106Z,99069.63
2024-03-09T07:11:56.722Z,99065.75
2024-03-09T07:12:58.919Z,99067.75
2024-03-09T07:14:01.780Z,99065.44
2024-03-09T07:15:08.247Z,99059.69
2024-03-09T07:16:10.329Z,99062.06
2024-03-09T07:17:20.931Z,99057.84
2024-03-09T07:18:23.495Z,99055.16
2024-03-09T07:19:25.601Z,99061.78
2024-03-09T07:20:29.958Z,99055.56
2024-03-09T07:21:32.786Z,99054.41
2024-03-09T07:22:34.857Z,99054.84
2024-03-09T07:23:37.598Z,99054.91
2024-03-09T07:24:39.499Z,99061.16
2024-03-09T07:25:42.512Z,99063.47
2024-03-09T07:26:49.547Z,99071.72
2024-03-09T07:27:53.613Z,99070.19
2024-03-09T07:28:56.538Z,99065.94
2024-03-09T07:29:58.516Z,99063.66
2024-03-09T07:31:00.622Z,99059.00
2024-03-09T07:32:03.914Z,99059.00
2024-03-09T07:33:07.034Z,99062.13
2024-03-09T07:34:09.037Z,99059.03
2024-03-09T07:35:15.935Z,99062.13
2024-03-09T07:36:21.782Z,99074.97
2024-03-09T07:37:25.366Z,99066.84
2024-03-09T07:38:27.433Z,99069.97
2024-03-09T07:39:31.676Z,99079.28
2024-03-09T07:40:37.203Z,99069.25
2024-03-09T07:41:39.424Z,99075.03
2024-03-09T07:42:42.193Z,99071.19
2024-03-09T07:43:44.990Z,99076.22
2024-03-09T07:44:47.017Z,99083.16
2024-03-09T07:45:49.301Z,99081.25
2024-03-09T07:46:51.484Z,99087.06
2024-03-09T07:47:53.737Z,99078.19
2024-03-09T07:48:55.703Z,99083.25
2024-03-09T07:49:57.700Z,99080.25
2024-03-09T07:51:04.401Z,99079.50
2024-03-09T07:52:07.157Z,99073.69
2024-03-09T07:53:09.276Z,99077.97
2024-03-09T07:54:11.399Z,99074.91
2024-03-09T07:55:17.357Z,99076.88
2024-03-09T07:56:19.841Z,99078.03
2024-03-09T07:57:22.312Z,99074.97
2024-03-09T07:58:26.956Z,99064.16
2024-03-09T07:59:29.859Z,99064.94
2024-03-09T08:00:35.293Z,99057.97
2024-03-09T08:01:40.207Z,99065.38
2024-03-09T08:02:42.547Z,99057.63
2024-03-09T08:03:47.480Z,99061.91
2024-03-09T08:04:49.539Z,99065.75
2024-03-09T08:05:52.659Z,99068.13
2024-03-09T08:06:55.628Z,99070.81
2024-03-09T08:08:00.178Z,99071.25
2024-03-09T08:09:03.782Z,99054.16
2024-03-09T08:10:08.101Z,99051.06
2024-03-09T08:11:10.685Z,99063.88
2024-03-09T08:12:12.926Z,99056.16
2024-03-09T08:13:15.470Z,99055.34
2024-03-09T08:14:22.272Z,99050.31
2024-03-09T08:15:30.908Z,99059.63
2024-03-09T08:16:34.426Z,99050.72
2024-03-09T08:17:37.259Z,99059.63
2024-03-09T08:18:42.097Z,99061.97
2024-03-09T08:19:47.410Z,99051.09
2024-03-09T08:20:51.266Z,99054.25
2024-03-09T08:21:53.506Z,99041.81
2024-03-09T08:22:55.918Z,99045.72
2024-03-09T08:23:58.890Z,99034.09
2024-03-09T08:25:07.876Z,99034.09
2024-03-09T08:26:14.186Z,99038.78
2024-03-09T08:27:18.683Z,99043.81
2024-03-09T08:28:23.639Z,99043.81
2024-03-09T08:29:25.885Z,99051.19
2024-03-09T08:30:28.219Z,99052.38
2024-03-09T08:31:30.435Z,99044.59
2024-03-09T08:32:33.587Z,99049.25
2024-03-09T08:33:35.725Z,99041.13
2024-03-09T08:34:37.988Z,99045.41
2024-03-09T08:35:40.012Z,99033.34
2024-03-09T08:36:42.299Z,99031.81
2024-03-09T08:37:46.611Z,99030.66
2024-03-09T08:38:53.252Z,99034.53
2024-03-09T08:39:55.889Z,99031.84
2024-03-09T08:40:58.130Z,99030.66
2024-03-09T08:42:02.690Z,99031.47
2024-03-09T08:43:08.227Z,99036.13
2024-03-09T08:44:10.714Z,99022.13
2024-03-09T08:45:13.970Z,99036.91
2024-03-09T08:46:16.216Z,99027.97
2024-03-09T08:47:18.168Z,99031.47
2024-03-09T08:48:20.178Z,99029.53
2024-03-09T08:51:01.138Z,99025.66
2024-03-09T08:52:04.021Z,99021.38
2024-03-09T08:53:06.208Z,99023.34
2024-03-09T08:54:08.601Z,99020.25
2024-03-09T08:55:16.696Z,99028.00
2024-03-09T08:56:21.791Z,99016.00
2024-03-09T08:57:26.429Z,99026.47
2024-03-09T08:58:35.838Z,99021.03
2024-03-09T08:59:49.115Z,99018.72
2024-03-09T09:01:14.491Z,99025.28
2024-03-09T09:02:46.363Z,99014.41
2024-03-09T09:03:57.433Z,99007.84
2024-03-09T09:05:02.185Z,99011.34
2024-03-09T09:06:10.423Z,99015.19
2024-03-09T09:07:21.515Z,99009.00
2024-03-09T09:08:27.085Z,99017.94
2024-03-09T09:09:33.658Z,99012.09
2024-03-09T09:10:40.339Z,99012.47
2024-03-09T09:11:49.790Z,99019.47
2024-03-09T09:12:56.976Z,99014.44
2024-03-09T09:14:04.701Z,99019.47
2024-03-09T09:15:11.823Z,99018.31
2024-03-09T09:16:16.230Z,99017.13
2024-03-09T09:17:18.555Z,99024.13
2024-03-09T09:18:20.854Z,99020.63
2024-03-09T09:19:23.555Z,99017.13
2024-03-09T09:20:26.117Z,99015.19
2024-03-09T09:21:28.344Z,99002.75
2024-03-09T09:22:30.415Z,99008.94
2024-03-09T09:23:40.084Z,99005.06
2024-03-09T09:24:42.219Z,99004.28
2024-03-09T09:25:44.529Z,99010.50
2024-03-09T09:26:56.362Z,99010.88
2024-03-09T09:28:01.148Z,99015.53
2024-03-09T09:29:05.525Z,99013.19
2024-03-09T09:30:08.144Z,99013.94
2024-03-09T09:31:10.104Z,99015.09
2024-03-09T09:32:12.329Z,99008.50
2024-03-09T09:33:15.732Z,99004.22
2024-03-09T09:34:18.014Z,99010.03
2024-03-09T09:35:22.124Z,99016.25
2024-03-09T09:36:24.325Z,98994.88
2024-03-09T09:37:26.449Z,98999.91
2024-03-09T09:38:28.935Z,98997.56
2024-03-09T09:39:34.577Z,98986.69
2024-03-09T09:40:36.905Z,98986.66
2024-03-09T09:41:39.055Z,98988.59
2024-03-09T09:42:43.551Z,98992.06
2024-03-09T09:43:49.604Z,98991.28
2024-03-09T09:44:52.819Z,98988.19
2024-03-09T09:46:02.028Z,98989.72
2024-03-09T09:47:07.218Z,98988.16
2024-03-09T09:48:12.395Z,98979.97
2024-03-09T09:49:15.742Z,98982.31
2024-03-09T09:50:21.211Z,98976.84
2024-03-09T09:51:27.120Z,98981.09
2024-03-09T09:52:32.096Z,98972.13
2024-03-09T09:53:34.311Z,98975.66
2024-03-09T09:54:37.697Z,98975.63
2024-03-09T09:55:39.951Z,98981.81
2024-03-09T09:56:44.694Z,98981.03
2024-03-09T09:57:53.582Z,98977.53
2024-03-09T09:58:56.009Z,98979.06
2024-03-09T09:59:58.045Z,98974.75
2024-03-09T10:01:00.202Z,98975.91
2024-03-09T10:02:04.541Z,98967.31
2024-03-09T10:03:06.621Z,98970.41
2024-03-09T10:04:08.570Z,98963.03
2024-03-09T10:05:14.586Z,98965.69
2024-03-09T10:06:24.431Z,98953.53
2024-03-09T10:07:26.586Z,98948.84
2024-03-09T10:08:29.843Z,98945.75
2024-03-09T10:09:34.460Z,98956.59
2024-03-09T10:10:45.180Z,98962.38
2024-03-09T10:11:50.467Z,98956.16
2024-03-09T10:13:04.790Z,98964.28
2024-03-09T10:14:08.958Z,98964.28
2024-03-09T10:15:14.796Z,98961.13
2024-03-09T10:16:18.347Z,98963.03
2024-03-09T10:17:22.144Z,98949.78
2024-03-09T10:18:24.782Z,98956.69
2024-03-09T10:19:26.877Z,98950.81
2024-03-09T10:20:31.305Z,98943.75
2024-03-09T10:21:40.043Z,98941.31
2024-03-09T10:22:45.860Z,98936.97
2024-03-09T10:23:47.940Z,98939.22
2024-03-09T10:24:54.219Z,98937.09
2024-03-09T10:26:08.623Z,98930.00
2024-03-09T10:27:14.825Z,98927.97
2024-03-09T10:28:17.579Z,98923.56
2024-03-09T10:29:20.900Z,98926.66
2024-03-09T10:30:24.836Z,98925.84
2024-03-09T10:31:28.421Z,98926.81
2024-03-09T10:32:30.862Z,98925.19
2024-03-09T10:33:37.079Z,98923.50
2024-03-09T10:34:39.986Z,98927.50
2024-03-09T10:35:44.353Z,98921.97
2024-03-09T10:36:46.874Z,98925.00
2024-03-09T10:37:57.341Z,98921.81
2024-03-09T10:39:01.648Z,98923.97
2024-03-09T10:40:07.458Z,98915.72
2024-03-09T10:41:12.207Z,98919.22
2024-03-09T10:42:18.769Z,98929.16
2024-03-09T10:43:21.778Z,98913.69
2024-03-09T10:44:25.244Z,98919.13
2024-03-09T10:45:31.428Z,98915.09
2024-03-09T10:46:37.531Z,98910.19
2024-03-09T10:47:47.147Z,98909.09
2024-03-09T10:48:53.050Z,98898.47
2024-03-09T10:50:00.773Z,98900.88
2024-03-09T10:51:31.392Z,98902.13
2024-03-09T10:52:33.420Z,98892.16
2024-03-09T10:53:42.048Z,98902.03
2024-03-09T10:54:46.106Z,98903.09
2024-03-09T10:56:23.535Z,98896.47
2024-03-09T10:57:28.865Z,98895.31
2024-03-09T10:58:32.947Z,98889.88
2024-03-09T10:59:37.438Z,98898.19
2024-03-09T11:00:39.479Z,98894.59
2024-03-09T11:01:43.133Z,98889.03
2024-03-09T11:02:48.125Z,98885.78
2024-03-09T11:03:50.988Z,98882.03
2024-03-09T11:04:54.694Z,98887.44
2024-03-09T11:05:58.592Z,98893.91
2024-03-09T11:07:02.681Z,98884.03
2024-03-09T11:08:11.464Z,98885.31
2024-03-09T11:09:16.653Z,98891.81
2024-03-09T11:10:21.877Z,98889.16
2024-03-09T11:11:25.919Z,98891.81
2024-03-09T11:12:28.149Z,98880.47
2024-03-09T11:13:32.390Z,98881.97
2024-03-09T11:14:34.745Z,98877.75
2024-03-09T11:15:40.347Z,98875.00
2024-03-09T11:16:42.483Z,98878.19
2024-03-09T11:17:46.446Z,98875.56
2024-03-09T11:19:15.454Z,98870.91
2024-03-09T11:20:22.679Z,98869.78
2024-03-09T11:21:31.668Z,98864.94
2024-03-09T11:22:48.779Z,98866.91
2024-03-09T11:23:53.359Z,98873.78
2024-03-09T11:24:56.848Z,98866.16
2024-03-09T11:25:59.572Z,98868.75
2024-03-09T11:27:04.216Z,98865.41
2024-03-09T11:28:07.561Z,98864.47
2024-03-09T11:29:13.570Z,98869.72
2024-03-09T11:30:16.525Z,98869.28
2024-03-09T11:31:30.216Z,98877.09
2024-03-09T11:32:32.180Z,98864.66
2024-03-09T11:33:54.640Z,98858.53
2024-03-09T11:35:27.806Z,98854.53
2024-03-09T11:36:40.531Z,98843.34
2024-03-09T11:37:48.677Z,98844.72
2024-03-09T11:38:50.583Z,98848.41
2024-03-09T11:39:52.566Z,98848.22
2024-03-09T11:40:54.911Z,98846.69
2024-03-09T11:42:10.038Z,98842.41
2024-03-09T11:43:16.081Z,98845.41
2024-03-09T11:44:30.762Z,98848.97
2024-03-09T11:45:35.986Z,98842.63
2024-03-09T11:46:39.317Z,98842.06
2024-03-09T11:47:41.517Z,98832.38
2024-03-09T11:48:46.007Z,98838.22
2024-03-09T11:49:50.627Z,98836.59
2024-03-09T11:50:54.769Z,98840.59
2024-03-09T11:52:04.418Z,98825.88
2024-03-09T11:53:06.870Z,98825.81
2024-03-09T11:54:13.680Z,98824.75
2024-03-09T11:55:16.569Z,98817.38
2024-03-09T11:56:18.646Z,98819.56
2024-03-09T11:57:21.910Z,98814.81
2024-03-09T11:58:24.001Z,98815.34
2024-03-09T11:59:27.215Z,98819.13
2024-03-09T12:00:29.352Z,98815.31
2024-03-09T12:01:32.476Z,98812.13
2024-03-09T12:02:38.753Z,98810.63
2024-03-09T12:03:41.084Z,98811.47
2024-03-09T12:04:43.541Z,98816.16
2024-03-09T12:05:48.509Z,98811.31
2024-03-09T12:06:51.612Z,98807.75
2024-03-09T12:07:55.287Z,98810.22
2024-03-09T12:08:58.929Z,98795.63
2024-03-09T12:10:02.321Z,98802.56
2024-03-09T12:11:07.246Z,98804.25
2024-03-09T12:12:14.423Z,98804.38
2024-03-09T12:13:16.658Z,98796.28
2024-03-09T12:14:18.746Z,98792.75
2024-03-09T12:15:21.751Z,98794.69
2024-03-09T12:16:28.433Z,98791.34
2024-03-09T12:17:30.732Z,98796.41
2024-03-09T12:18:33.254Z,98790.19
2024-03-09T12:19:35.459Z,98794.19
2024-03-09T12:20:37.798Z,98794.03
2024-03-09T12:21:40.525Z,98788.47
2024-03-09T12:22:45.139Z,98786.16
2024-03-09T12:23:53.428Z,98795.94
2024-03-09T12:24:55.361Z,98786.66
2024-03-09T12:25:57.330Z,98787.88
2024-03-09T12:26:59.295Z,98789.41
2024-03-09T12:28:01.569Z,98789.13
2024-03-09T12:29:14.212Z,98784.81
2024-03-09T12:30:17.888Z,98780.22
2024-03-09T12:31:19.986Z,98779.09
2024-03-09T12:32:26.464Z,98779.78
2024-03-09T12:33:29.163Z,98782.72
2024-03-09T12:34:31.298Z,98784.25
2024-03-09T12:35:36.376Z,98786.56
2024-03-09T12:36:49.847Z,98778.53
2024-03-09T12:37:52.288Z,98780.97
2024-03-09T12:39:10.752Z,98779.88
2024-03-09T12:40:19.645Z,98774.66
2024-03-09T12:41:32.274Z,98778.72
2024-03-09T12:42:34.887Z,98773.84